sensor_id;sensor_type;location;lat;lon;timestamp;P1;durP1;ratioP1;P2;durP2;ratioP2
6205;SDS011;3136;48.788;9.772;2022-09-16T00:01:14;16.90;;;9.57;;
6205;SDS011;3136;48.788;9.772;2022-09-16T00:03:41;15.27;;;10.07;;
6205;SDS011;3136;48.788;9.772;2022-09-16T00:06:15;12.70;;;9.90;;
6205;SDS011;3136;48.788;9.772;2022-09-16T00:08:45;14.87;;;9.93;;
6205;SDS011;3136;48.788;9.772;2022-09-16T00:11:11;21.67;;;10.37;;
6205;SDS011;3136;48.788;9.772;2022-09-16T00:13:37;15.10;;;10.27;;
6205;SDS011;3136;48.788;9.772;2022-09-16T00:16:06;18.80;;;10.23;;
6205;SDS011;3136;48.788;9.772;2022-09-16T00:18:36;19.17;;;10.00;;
6205;SDS011;3136;48.788;9.772;2022-09-16T00:21:05;16.53;;;10.07;;
6205;SDS011;3136;48.788;9.772;2022-09-16T00:23:32;19.20;;;9.93;;
6205;SDS011;3136;48.788;9.772;2022-09-16T00:25:58;18.20;;;9.80;;
6205;SDS011;3136;48.788;9.772;2022-09-16T00:28:23;17.73;;;10.20;;
6205;SDS011;3136;48.788;9.772;2022-09-16T00:30:49;25.27;;;11.13;;
6205;SDS011;3136;48.788;9.772;2022-09-16T00:33:15;16.23;;;10.67;;
6205;SDS011;3136;48.788;9.772;2022-09-16T00:35:41;18.23;;;10.90;;
6205;SDS011;3136;48.788;9.772;2022-09-16T00:38:07;14.60;;;11.07;;
6205;SDS011;3136;48.788;9.772;2022-09-16T00:40:33;18.03;;;10.67;;
6205;SDS011;3136;48.788;9.772;2022-09-16T00:42:59;17.30;;;10.50;;
6205;SDS011;3136;48.788;9.772;2022-09-16T00:45:25;14.20;;;10.77;;
6205;SDS011;3136;48.788;9.772;2022-09-16T00:47:56;17.43;;;10.50;;
6205;SDS011;3136;48.788;9.772;2022-09-16T00:53:08;20.77;;;10.80;;
6205;SDS011;3136;48.788;9.772;2022-09-16T00:55:39;18.13;;;11.00;;
6205;SDS011;3136;48.788;9.772;2022-09-16T00:58:11;22.33;;;10.80;;
6205;SDS011;3136;48.788;9.772;2022-09-16T01:00:49;17.10;;;10.13;;
6205;SDS011;3136;48.788;9.772;2022-09-16T01:03:15;19.00;;;10.63;;
6205;SDS011;3136;48.788;9.772;2022-09-16T01:05:41;17.87;;;10.57;;
6205;SDS011;3136;48.788;9.772;2022-09-16T01:08:09;16.27;;;10.67;;
6205;SDS011;3136;48.788;9.772;2022-09-16T01:10:34;24.27;;;11.00;;
6205;SDS011;3136;48.788;9.772;2022-09-16T01:13:02;19.77;;;10.57;;
6205;SDS011;3136;48.788;9.772;2022-09-16T01:15:31;17.77;;;11.30;;
6205;SDS011;3136;48.788;9.772;2022-09-16T01:18:17;19.60;;;11.53;;
6205;SDS011;3136;48.788;9.772;2022-09-16T01:21:06;21.60;;;11.60;;
6205;SDS011;3136;48.788;9.772;2022-09-16T01:32:17;24.77;;;12.30;;
6205;SDS011;3136;48.788;9.772;2022-09-16T01:34:52;24.50;;;12.00;;
6205;SDS011;3136;48.788;9.772;2022-09-16T01:40:14;15.80;;;11.57;;
6205;SDS011;3136;48.788;9.772;2022-09-16T01:43:35;18.93;;;12.30;;
6205;SDS011;3136;48.788;9.772;2022-09-16T01:46:06;17.27;;;11.47;;
6205;SDS011;3136;48.788;9.772;2022-09-16T01:48:42;19.93;;;12.17;;
6205;SDS011;3136;48.788;9.772;2022-09-16T01:54:07;20.43;;;11.87;;
6205;SDS011;3136;48.788;9.772;2022-09-16T01:56:43;17.87;;;11.53;;
6205;SDS011;3136;48.788;9.772;2022-09-16T01:59:10;18.27;;;11.47;;
6205;SDS011;3136;48.788;9.772;2022-09-16T02:01:44;20.30;;;12.43;;
6205;SDS011;3136;48.788;9.772;2022-09-16T02:04:37;21.10;;;11.57;;
6205;SDS011;3136;48.788;9.772;2022-09-16T02:07:08;20.17;;;11.57;;
6205;SDS011;3136;48.788;9.772;2022-09-16T02:09:37;20.60;;;11.43;;
6205;SDS011;3136;48.788;9.772;2022-09-16T02:12:07;17.53;;;11.70;;
6205;SDS011;3136;48.788;9.772;2022-09-16T02:14:40;21.77;;;11.93;;
6205;SDS011;3136;48.788;9.772;2022-09-16T02:17:08;16.63;;;11.63;;
6205;SDS011;3136;48.788;9.772;2022-09-16T02:19:38;21.57;;;11.53;;
6205;SDS011;3136;48.788;9.772;2022-09-16T02:22:07;21.80;;;11.77;;
6205;SDS011;3136;48.788;9.772;2022-09-16T02:24:37;24.60;;;11.77;;
6205;SDS011;3136;48.788;9.772;2022-09-16T02:27:05;27.07;;;11.87;;
6205;SDS011;3136;48.788;9.772;2022-09-16T02:29:38;20.07;;;11.77;;
6205;SDS011;3136;48.788;9.772;2022-09-16T02:32:07;23.43;;;11.50;;
6205;SDS011;3136;48.788;9.772;2022-09-16T02:34:36;21.33;;;11.13;;
6205;SDS011;3136;48.788;9.772;2022-09-16T02:37:06;15.97;;;10.20;;
6205;SDS011;3136;48.788;9.772;2022-09-16T02:39:36;21.63;;;10.97;;
6205;SDS011;3136;48.788;9.772;2022-09-16T02:42:04;16.33;;;11.37;;
6205;SDS011;3136;48.788;9.772;2022-09-16T02:44:31;20.27;;;11.23;;
6205;SDS011;3136;48.788;9.772;2022-09-16T02:50:00;17.87;;;11.83;;
6205;SDS011;3136;48.788;9.772;2022-09-16T02:52:49;16.30;;;10.23;;
6205;SDS011;3136;48.788;9.772;2022-09-16T02:58:03;21.57;;;11.77;;
6205;SDS011;3136;48.788;9.772;2022-09-16T03:00:30;25.13;;;11.70;;
6205;SDS011;3136;48.788;9.772;2022-09-16T03:03:00;21.20;;;11.93;;
6205;SDS011;3136;48.788;9.772;2022-09-16T03:05:28;17.53;;;10.97;;
6205;SDS011;3136;48.788;9.772;2022-09-16T03:07:54;21.03;;;11.43;;
6205;SDS011;3136;48.788;9.772;2022-09-16T03:10:21;25.63;;;12.93;;
6205;SDS011;3136;48.788;9.772;2022-09-16T03:12:54;18.57;;;10.60;;
6205;SDS011;3136;48.788;9.772;2022-09-16T03:18:35;20.60;;;11.10;;
6205;SDS011;3136;48.788;9.772;2022-09-16T03:21:16;18.90;;;11.27;;
6205;SDS011;3136;48.788;9.772;2022-09-16T03:24:10;20.00;;;11.80;;
6205;SDS011;3136;48.788;9.772;2022-09-16T03:34:48;17.37;;;11.20;;
6205;SDS011;3136;48.788;9.772;2022-09-16T03:37:18;19.77;;;11.33;;
6205;SDS011;3136;48.788;9.772;2022-09-16T03:39:54;17.93;;;11.20;;
6205;SDS011;3136;48.788;9.772;2022-09-16T03:42:23;17.70;;;11.57;;
6205;SDS011;3136;48.788;9.772;2022-09-16T03:44:49;25.50;;;12.00;;
6205;SDS011;3136;48.788;9.772;2022-09-16T03:47:14;20.43;;;11.53;;
6205;SDS011;3136;48.788;9.772;2022-09-16T03:49:41;15.30;;;10.90;;
6205;SDS011;3136;48.788;9.772;2022-09-16T03:52:06;15.17;;;11.30;;
6205;SDS011;3136;48.788;9.772;2022-09-16T03:54:33;22.23;;;12.13;;
6205;SDS011;3136;48.788;9.772;2022-09-16T03:57:00;22.73;;;12.97;;
6205;SDS011;3136;48.788;9.772;2022-09-16T03:59:26;19.17;;;12.03;;
6205;SDS011;3136;48.788;9.772;2022-09-16T04:01:52;20.40;;;12.17;;
6205;SDS011;3136;48.788;9.772;2022-09-16T04:04:18;17.87;;;12.13;;
6205;SDS011;3136;48.788;9.772;2022-09-16T04:06:43;18.80;;;11.60;;
6205;SDS011;3136;48.788;9.772;2022-09-16T04:09:10;28.53;;;12.17;;
6205;SDS011;3136;48.788;9.772;2022-09-16T04:11:37;21.40;;;12.43;;
6205;SDS011;3136;48.788;9.772;2022-09-16T04:14:03;18.63;;;11.70;;
6205;SDS011;3136;48.788;9.772;2022-09-16T04:16:29;24.40;;;11.43;;
6205;SDS011;3136;48.788;9.772;2022-09-16T04:18:55;21.07;;;12.07;;
6205;SDS011;3136;48.788;9.772;2022-09-16T04:21:21;21.77;;;11.47;;
6205;SDS011;3136;48.788;9.772;2022-09-16T04:23:47;15.50;;;11.10;;
6205;SDS011;3136;48.788;9.772;2022-09-16T04:26:13;25.20;;;11.90;;
6205;SDS011;3136;48.788;9.772;2022-09-16T04:28:39;22.50;;;12.50;;
6205;SDS011;3136;48.788;9.772;2022-09-16T04:31:05;20.80;;;12.17;;
6205;SDS011;3136;48.788;9.772;2022-09-16T04:33:34;19.50;;;12.03;;
6205;SDS011;3136;48.788;9.772;2022-09-16T04:36:01;21.87;;;12.77;;
6205;SDS011;3136;48.788;9.772;2022-09-16T04:38:36;25.53;;;12.67;;
6205;SDS011;3136;48.788;9.772;2022-09-16T04:41:03;24.37;;;13.10;;
6205;SDS011;3136;48.788;9.772;2022-09-16T04:43:36;19.23;;;12.83;;
6205;SDS011;3136;48.788;9.772;2022-09-16T04:46:02;23.80;;;13.07;;
6205;SDS011;3136;48.788;9.772;2022-09-16T04:48:28;25.13;;;13.47;;
6205;SDS011;3136;48.788;9.772;2022-09-16T04:50:59;25.43;;;13.27;;
6205;SDS011;3136;48.788;9.772;2022-09-16T04:53:29;19.30;;;12.77;;
6205;SDS011;3136;48.788;9.772;2022-09-16T04:58:41;21.03;;;13.30;;
6205;SDS011;3136;48.788;9.772;2022-09-16T05:01:12;22.97;;;13.67;;
6205;SDS011;3136;48.788;9.772;2022-09-16T05:03:40;23.13;;;13.80;;
6205;SDS011;3136;48.788;9.772;2022-09-16T05:06:10;22.97;;;14.47;;
6205;SDS011;3136;48.788;9.772;2022-09-16T05:08:57;28.23;;;18.50;;
6205;SDS011;3136;48.788;9.772;2022-09-16T05:11:25;22.03;;;14.10;;
6205;SDS011;3136;48.788;9.772;2022-09-16T05:13:53;20.00;;;12.97;;
6205;SDS011;3136;48.788;9.772;2022-09-16T05:16:20;23.90;;;13.20;;
6205;SDS011;3136;48.788;9.772;2022-09-16T05:18:47;23.90;;;13.57;;
6205;SDS011;3136;48.788;9.772;2022-09-16T05:21:15;25.23;;;14.90;;
6205;SDS011;3136;48.788;9.772;2022-09-16T05:23:42;20.83;;;14.20;;
6205;SDS011;3136;48.788;9.772;2022-09-16T05:26:15;29.90;;;15.70;;
6205;SDS011;3136;48.788;9.772;2022-09-16T05:28:48;24.43;;;14.20;;
6205;SDS011;3136;48.788;9.772;2022-09-16T05:34:02;24.43;;;14.77;;
6205;SDS011;3136;48.788;9.772;2022-09-16T05:36:45;28.37;;;14.20;;
6205;SDS011;3136;48.788;9.772;2022-09-16T05:39:13;24.87;;;14.67;;
6205;SDS011;3136;48.788;9.772;2022-09-16T05:41:41;22.47;;;14.10;;
6205;SDS011;3136;48.788;9.772;2022-09-16T05:44:07;22.77;;;12.90;;
6205;SDS011;3136;48.788;9.772;2022-09-16T05:46:32;21.50;;;12.57;;
6205;SDS011;3136;48.788;9.772;2022-09-16T05:48:59;21.50;;;11.87;;
6205;SDS011;3136;48.788;9.772;2022-09-16T05:51:24;17.00;;;12.30;;
6205;SDS011;3136;48.788;9.772;2022-09-16T05:53:50;23.17;;;13.17;;
6205;SDS011;3136;48.788;9.772;2022-09-16T05:56:18;21.83;;;13.20;;
6205;SDS011;3136;48.788;9.772;2022-09-16T05:58:50;25.07;;;14.00;;
6205;SDS011;3136;48.788;9.772;2022-09-16T06:01:19;19.83;;;12.60;;
6205;SDS011;3136;48.788;9.772;2022-09-16T06:03:46;21.63;;;13.07;;
6205;SDS011;3136;48.788;9.772;2022-09-16T06:06:20;22.90;;;13.43;;
6205;SDS011;3136;48.788;9.772;2022-09-16T06:08:52;18.23;;;13.20;;
6205;SDS011;3136;48.788;9.772;2022-09-16T06:11:22;20.87;;;13.83;;
6205;SDS011;3136;48.788;9.772;2022-09-16T06:13:56;23.63;;;14.77;;
6205;SDS011;3136;48.788;9.772;2022-09-16T06:16:24;21.20;;;13.90;;
6205;SDS011;3136;48.788;9.772;2022-09-16T06:18:54;18.30;;;13.33;;
6205;SDS011;3136;48.788;9.772;2022-09-16T06:21:21;20.90;;;12.87;;
6205;SDS011;3136;48.788;9.772;2022-09-16T06:23:47;19.83;;;13.13;;
6205;SDS011;3136;48.788;9.772;2022-09-16T06:26:13;19.77;;;13.83;;
6205;SDS011;3136;48.788;9.772;2022-09-16T06:28:44;19.97;;;14.20;;
6205;SDS011;3136;48.788;9.772;2022-09-16T06:31:12;19.57;;;13.90;;
6205;SDS011;3136;48.788;9.772;2022-09-16T06:33:42;19.17;;;13.43;;
6205;SDS011;3136;48.788;9.772;2022-09-16T06:36:12;20.30;;;13.80;;
6205;SDS011;3136;48.788;9.772;2022-09-16T06:38:40;18.47;;;13.23;;
6205;SDS011;3136;48.788;9.772;2022-09-16T06:41:06;19.73;;;12.90;;
6205;SDS011;3136;48.788;9.772;2022-09-16T06:43:34;21.93;;;13.43;;
6205;SDS011;3136;48.788;9.772;2022-09-16T06:46:10;19.17;;;12.97;;
6205;SDS011;3136;48.788;9.772;2022-09-16T06:48:41;18.93;;;12.50;;
6205;SDS011;3136;48.788;9.772;2022-09-16T06:51:14;16.77;;;11.30;;
6205;SDS011;3136;48.788;9.772;2022-09-16T06:53:41;16.97;;;11.37;;
6205;SDS011;3136;48.788;9.772;2022-09-16T06:56:08;17.87;;;11.03;;
6205;SDS011;3136;48.788;9.772;2022-09-16T06:58:36;19.37;;;12.03;;
6205;SDS011;3136;48.788;9.772;2022-09-16T07:01:07;17.47;;;11.70;;
6205;SDS011;3136;48.788;9.772;2022-09-16T07:03:37;15.07;;;11.43;;
6205;SDS011;3136;48.788;9.772;2022-09-16T07:06:04;19.73;;;12.67;;
6205;SDS011;3136;48.788;9.772;2022-09-16T07:08:31;15.40;;;12.53;;
6205;SDS011;3136;48.788;9.772;2022-09-16T07:10:58;17.23;;;12.23;;
6205;SDS011;3136;48.788;9.772;2022-09-16T07:13:29;13.47;;;11.20;;
6205;SDS011;3136;48.788;9.772;2022-09-16T07:16:02;19.03;;;11.70;;
6205;SDS011;3136;48.788;9.772;2022-09-16T07:18:29;17.90;;;10.40;;
6205;SDS011;3136;48.788;9.772;2022-09-16T07:23:36;11.43;;;8.70;;
6205;SDS011;3136;48.788;9.772;2022-09-16T07:26:03;15.93;;;10.03;;
6205;SDS011;3136;48.788;9.772;2022-09-16T07:28:34;19.80;;;10.17;;
6205;SDS011;3136;48.788;9.772;2022-09-16T07:31:01;12.73;;;7.93;;
6205;SDS011;3136;48.788;9.772;2022-09-16T07:33:28;11.77;;;7.70;;
6205;SDS011;3136;48.788;9.772;2022-09-16T07:35:59;9.07;;;6.33;;
6205;SDS011;3136;48.788;9.772;2022-09-16T07:38:25;12.30;;;7.23;;
6205;SDS011;3136;48.788;9.772;2022-09-16T07:40:51;13.03;;;7.07;;
6205;SDS011;3136;48.788;9.772;2022-09-16T07:43:17;13.67;;;7.20;;
6205;SDS011;3136;48.788;9.772;2022-09-16T07:45:42;10.83;;;7.60;;
6205;SDS011;3136;48.788;9.772;2022-09-16T07:48:08;13.00;;;7.07;;
6205;SDS011;3136;48.788;9.772;2022-09-16T07:50:34;11.77;;;6.60;;
6205;SDS011;3136;48.788;9.772;2022-09-16T07:52:59;9.47;;;6.20;;
6205;SDS011;3136;48.788;9.772;2022-09-16T07:55:25;6.87;;;5.30;;
6205;SDS011;3136;48.788;9.772;2022-09-16T07:57:51;8.43;;;5.37;;
6205;SDS011;3136;48.788;9.772;2022-09-16T08:00:17;12.90;;;5.70;;
6205;SDS011;3136;48.788;9.772;2022-09-16T08:02:42;7.90;;;5.10;;
6205;SDS011;3136;48.788;9.772;2022-09-16T08:05:08;6.67;;;5.03;;
6205;SDS011;3136;48.788;9.772;2022-09-16T08:07:34;7.07;;;4.57;;
6205;SDS011;3136;48.788;9.772;2022-09-16T08:10:00;11.80;;;5.20;;
6205;SDS011;3136;48.788;9.772;2022-09-16T08:12:26;8.37;;;4.73;;
6205;SDS011;3136;48.788;9.772;2022-09-16T08:14:56;7.67;;;4.57;;
6205;SDS011;3136;48.788;9.772;2022-09-16T08:17:23;7.43;;;4.70;;
6205;SDS011;3136;48.788;9.772;2022-09-16T08:19:48;6.97;;;4.50;;
6205;SDS011;3136;48.788;9.772;2022-09-16T08:22:14;9.43;;;4.60;;
6205;SDS011;3136;48.788;9.772;2022-09-16T08:24:39;6.27;;;4.80;;
6205;SDS011;3136;48.788;9.772;2022-09-16T08:27:05;6.97;;;4.70;;
6205;SDS011;3136;48.788;9.772;2022-09-16T08:29:31;6.00;;;4.40;;
6205;SDS011;3136;48.788;9.772;2022-09-16T08:31:56;7.73;;;4.00;;
6205;SDS011;3136;48.788;9.772;2022-09-16T08:34:22;6.23;;;4.00;;
6205;SDS011;3136;48.788;9.772;2022-09-16T08:36:47;6.10;;;3.70;;
6205;SDS011;3136;48.788;9.772;2022-09-16T08:39:13;4.67;;;3.07;;
6205;SDS011;3136;48.788;9.772;2022-09-16T08:50:14;5.03;;;3.23;;
6205;SDS011;3136;48.788;9.772;2022-09-16T08:52:49;3.23;;;2.60;;
6205;SDS011;3136;48.788;9.772;2022-09-16T08:55:22;5.80;;;2.67;;
6205;SDS011;3136;48.788;9.772;2022-09-16T09:00:41;6.90;;;3.30;;
6205;SDS011;3136;48.788;9.772;2022-09-16T09:05:44;4.87;;;3.57;;
6205;SDS011;3136;48.788;9.772;2022-09-16T09:08:25;4.17;;;2.50;;
6205;SDS011;3136;48.788;9.772;2022-09-16T09:11:22;5.53;;;3.00;;
6205;SDS011;3136;48.788;9.772;2022-09-16T09:17:08;4.97;;;2.80;;
6205;SDS011;3136;48.788;9.772;2022-09-16T09:20:10;4.43;;;2.97;;
6205;SDS011;3136;48.788;9.772;2022-09-16T09:34:05;4.77;;;3.70;;
6205;SDS011;3136;48.788;9.772;2022-09-16T09:36:58;5.07;;;3.20;;
6205;SDS011;3136;48.788;9.772;2022-09-16T09:39:45;5.83;;;3.20;;
6205;SDS011;3136;48.788;9.772;2022-09-16T09:45:29;5.63;;;3.53;;
6205;SDS011;3136;48.788;9.772;2022-09-16T09:48:00;3.90;;;3.43;;
6205;SDS011;3136;48.788;9.772;2022-09-16T09:50:41;6.87;;;3.73;;
6205;SDS011;3136;48.788;9.772;2022-09-16T09:53:12;4.23;;;3.50;;
6205;SDS011;3136;48.788;9.772;2022-09-16T09:55:43;10.07;;;4.47;;
6205;SDS011;3136;48.788;9.772;2022-09-16T09:58:20;7.80;;;4.03;;
6205;SDS011;3136;48.788;9.772;2022-09-16T10:00:54;6.30;;;3.70;;
6205;SDS011;3136;48.788;9.772;2022-09-16T10:03:22;5.53;;;3.70;;
6205;SDS011;3136;48.788;9.772;2022-09-16T10:05:49;5.87;;;3.70;;
6205;SDS011;3136;48.788;9.772;2022-09-16T10:10:57;5.83;;;3.40;;
6205;SDS011;3136;48.788;9.772;2022-09-16T10:13:25;4.27;;;2.93;;
6205;SDS011;3136;48.788;9.772;2022-09-16T10:15:53;6.87;;;3.00;;
6205;SDS011;3136;48.788;9.772;2022-09-16T10:18:30;4.53;;;2.97;;
6205;SDS011;3136;48.788;9.772;2022-09-16T10:21:07;5.70;;;3.20;;
6205;SDS011;3136;48.788;9.772;2022-09-16T10:23:35;5.30;;;3.23;;
6205;SDS011;3136;48.788;9.772;2022-09-16T10:28:40;3.40;;;2.90;;
6205;SDS011;3136;48.788;9.772;2022-09-16T10:31:06;5.57;;;3.03;;
6205;SDS011;3136;48.788;9.772;2022-09-16T10:33:41;4.70;;;3.13;;
6205;SDS011;3136;48.788;9.772;2022-09-16T10:36:09;5.47;;;3.13;;
6205;SDS011;3136;48.788;9.772;2022-09-16T10:38:46;6.17;;;3.13;;
6205;SDS011;3136;48.788;9.772;2022-09-16T10:41:31;4.80;;;3.33;;
6205;SDS011;3136;48.788;9.772;2022-09-16T10:43:59;5.57;;;2.93;;
6205;SDS011;3136;48.788;9.772;2022-09-16T10:46:30;9.27;;;3.13;;
6205;SDS011;3136;48.788;9.772;2022-09-16T10:48:59;5.23;;;3.23;;
6205;SDS011;3136;48.788;9.772;2022-09-16T10:51:32;8.37;;;3.40;;
6205;SDS011;3136;48.788;9.772;2022-09-16T10:53:59;6.23;;;3.10;;
6205;SDS011;3136;48.788;9.772;2022-09-16T10:56:27;7.03;;;3.40;;
6205;SDS011;3136;48.788;9.772;2022-09-16T10:59:07;11.33;;;3.63;;
6205;SDS011;3136;48.788;9.772;2022-09-16T11:10:00;5.83;;;3.20;;
6205;SDS011;3136;48.788;9.772;2022-09-16T11:12:53;3.70;;;3.00;;
6205;SDS011;3136;48.788;9.772;2022-09-16T11:15:38;5.33;;;2.80;;
6205;SDS011;3136;48.788;9.772;2022-09-16T11:23:40;6.20;;;3.03;;
6205;SDS011;3136;48.788;9.772;2022-09-16T11:37:19;5.30;;;3.27;;
6205;SDS011;3136;48.788;9.772;2022-09-16T11:40:10;6.93;;;2.90;;
6205;SDS011;3136;48.788;9.772;2022-09-16T11:42:42;6.13;;;3.10;;
6205;SDS011;3136;48.788;9.772;2022-09-16T11:48:19;4.97;;;3.20;;
6205;SDS011;3136;48.788;9.772;2022-09-16T11:51:17;5.83;;;3.50;;
6205;SDS011;3136;48.788;9.772;2022-09-16T11:54:06;5.97;;;3.30;;
6205;SDS011;3136;48.788;9.772;2022-09-16T11:56:51;7.60;;;3.37;;
6205;SDS011;3136;48.788;9.772;2022-09-16T12:04:58;5.20;;;3.20;;
6205;SDS011;3136;48.788;9.772;2022-09-16T12:07:39;8.87;;;3.10;;
6205;SDS011;3136;48.788;9.772;2022-09-16T12:10:22;9.80;;;3.90;;
6205;SDS011;3136;48.788;9.772;2022-09-16T12:12:53;4.20;;;2.80;;
6205;SDS011;3136;48.788;9.772;2022-09-16T12:15:59;5.97;;;3.10;;
6205;SDS011;3136;48.788;9.772;2022-09-16T12:21:14;5.40;;;3.37;;
6205;SDS011;3136;48.788;9.772;2022-09-16T12:23:44;5.87;;;3.33;;
6205;SDS011;3136;48.788;9.772;2022-09-16T12:31:12;8.50;;;3.67;;
6205;SDS011;3136;48.788;9.772;2022-09-16T12:33:53;4.53;;;3.13;;
6205;SDS011;3136;48.788;9.772;2022-09-16T12:36:28;4.90;;;2.90;;
6205;SDS011;3136;48.788;9.772;2022-09-16T12:38:57;9.47;;;3.20;;
6205;SDS011;3136;48.788;9.772;2022-09-16T12:47:59;3.20;;;2.30;;
6205;SDS011;3136;48.788;9.772;2022-09-16T12:50:13;7.47;;;2.50;;
6205;SDS011;3136;48.788;9.772;2022-09-16T12:55:59;3.40;;;1.80;;
6205;SDS011;3136;48.788;9.772;2022-09-16T13:01:31;3.00;;;1.43;;
6205;SDS011;3136;48.788;9.772;2022-09-16T13:04:19;3.80;;;1.67;;
6205;SDS011;3136;48.788;9.772;2022-09-16T13:06:49;6.00;;;1.70;;
6205;SDS011;3136;48.788;9.772;2022-09-16T13:11:57;1.90;;;1.60;;
6205;SDS011;3136;48.788;9.772;2022-09-16T13:14:29;2.97;;;1.90;;
6205;SDS011;3136;48.788;9.772;2022-09-16T13:16:58;2.50;;;1.53;;
6205;SDS011;3136;48.788;9.772;2022-09-16T13:22:21;3.60;;;1.63;;
6205;SDS011;3136;48.788;9.772;2022-09-16T13:25:17;3.50;;;1.50;;
6205;SDS011;3136;48.788;9.772;2022-09-16T13:28:25;3.00;;;1.53;;
6205;SDS011;3136;48.788;9.772;2022-09-16T13:30:51;4.10;;;1.63;;
6205;SDS011;3136;48.788;9.772;2022-09-16T13:35:46;3.20;;;1.60;;
6205;SDS011;3136;48.788;9.772;2022-09-16T13:40:39;5.03;;;1.40;;
6205;SDS011;3136;48.788;9.772;2022-09-16T13:43:17;4.10;;;1.50;;
6205;SDS011;3136;48.788;9.772;2022-09-16T13:46:05;4.70;;;1.60;;
6205;SDS011;3136;48.788;9.772;2022-09-16T13:48:56;4.20;;;1.33;;
6205;SDS011;3136;48.788;9.772;2022-09-16T13:51:26;2.80;;;1.30;;
6205;SDS011;3136;48.788;9.772;2022-09-16T13:53:52;4.30;;;1.50;;
6205;SDS011;3136;48.788;9.772;2022-09-16T14:01:42;2.87;;;1.40;;
6205;SDS011;3136;48.788;9.772;2022-09-16T14:07:48;4.87;;;1.93;;
6205;SDS011;3136;48.788;9.772;2022-09-16T14:13:40;2.17;;;1.70;;
6205;SDS011;3136;48.788;9.772;2022-09-16T14:16:21;3.00;;;1.60;;
6205;SDS011;3136;48.788;9.772;2022-09-16T14:18:52;3.30;;;1.60;;
6205;SDS011;3136;48.788;9.772;2022-09-16T14:21:38;3.20;;;1.70;;
6205;SDS011;3136;48.788;9.772;2022-09-16T14:24:13;2.73;;;1.67;;
6205;SDS011;3136;48.788;9.772;2022-09-16T14:26:49;4.23;;;1.50;;
6205;SDS011;3136;48.788;9.772;2022-09-16T14:29:19;2.67;;;1.60;;
6205;SDS011;3136;48.788;9.772;2022-09-16T14:31:46;3.10;;;1.50;;
6205;SDS011;3136;48.788;9.772;2022-09-16T14:34:23;4.77;;;1.67;;
6205;SDS011;3136;48.788;9.772;2022-09-16T14:36:50;1.63;;;1.40;;
6205;SDS011;3136;48.788;9.772;2022-09-16T14:39:17;5.60;;;1.70;;
6205;SDS011;3136;48.788;9.772;2022-09-16T14:41:50;3.00;;;1.57;;
6205;SDS011;3136;48.788;9.772;2022-09-16T14:46:51;5.33;;;1.60;;
6205;SDS011;3136;48.788;9.772;2022-09-16T14:49:29;6.57;;;1.63;;
6205;SDS011;3136;48.788;9.772;2022-09-16T14:51:57;4.30;;;1.60;;
6205;SDS011;3136;48.788;9.772;2022-09-16T14:54:28;2.00;;;1.10;;
6205;SDS011;3136;48.788;9.772;2022-09-16T14:56:58;4.57;;;1.60;;
6205;SDS011;3136;48.788;9.772;2022-09-16T14:59:37;4.83;;;2.03;;
6205;SDS011;3136;48.788;9.772;2022-09-16T15:04:56;2.53;;;1.60;;
6205;SDS011;3136;48.788;9.772;2022-09-16T15:07:32;2.47;;;1.60;;
6205;SDS011;3136;48.788;9.772;2022-09-16T15:10:08;2.63;;;1.20;;
6205;SDS011;3136;48.788;9.772;2022-09-16T15:12:45;4.30;;;2.30;;
6205;SDS011;3136;48.788;9.772;2022-09-16T15:15:19;6.57;;;1.70;;
6205;SDS011;3136;48.788;9.772;2022-09-16T15:17:53;4.03;;;1.90;;
6205;SDS011;3136;48.788;9.772;2022-09-16T15:20:25;2.77;;;1.80;;
6205;SDS011;3136;48.788;9.772;2022-09-16T15:22:52;3.83;;;1.73;;
6205;SDS011;3136;48.788;9.772;2022-09-16T15:25:21;6.97;;;2.03;;
6205;SDS011;3136;48.788;9.772;2022-09-16T15:28:02;5.90;;;2.10;;
6205;SDS011;3136;48.788;9.772;2022-09-16T15:30:32;4.97;;;2.27;;
6205;SDS011;3136;48.788;9.772;2022-09-16T15:32:58;6.93;;;2.23;;
6205;SDS011;3136;48.788;9.772;2022-09-16T15:35:25;4.40;;;2.10;;
6205;SDS011;3136;48.788;9.772;2022-09-16T15:37:54;5.60;;;2.03;;
6205;SDS011;3136;48.788;9.772;2022-09-16T15:45:32;3.23;;;1.80;;
6205;SDS011;3136;48.788;9.772;2022-09-16T15:47:59;3.27;;;1.90;;
6205;SDS011;3136;48.788;9.772;2022-09-16T15:50:27;3.30;;;1.60;;
6205;SDS011;3136;48.788;9.772;2022-09-16T15:53:06;7.93;;;1.87;;
6205;SDS011;3136;48.788;9.772;2022-09-16T16:06:08;6.97;;;1.90;;
6205;SDS011;3136;48.788;9.772;2022-09-16T16:08:42;6.13;;;1.80;;
6205;SDS011;3136;48.788;9.772;2022-09-16T16:11:15;3.13;;;1.80;;
6205;SDS011;3136;48.788;9.772;2022-09-16T16:13:45;4.40;;;1.70;;
6205;SDS011;3136;48.788;9.772;2022-09-16T16:16:12;4.43;;;1.83;;
6205;SDS011;3136;48.788;9.772;2022-09-16T16:18:39;6.80;;;2.13;;
6205;SDS011;3136;48.788;9.772;2022-09-16T16:21:07;3.17;;;1.80;;
6205;SDS011;3136;48.788;9.772;2022-09-16T16:23:36;4.40;;;1.90;;
6205;SDS011;3136;48.788;9.772;2022-09-16T16:26:03;5.00;;;2.00;;
6205;SDS011;3136;48.788;9.772;2022-09-16T16:28:30;2.40;;;1.70;;
6205;SDS011;3136;48.788;9.772;2022-09-16T16:31:15;5.63;;;2.20;;
6205;SDS011;3136;48.788;9.772;2022-09-16T16:33:43;6.27;;;2.30;;
6205;SDS011;3136;48.788;9.772;2022-09-16T16:36:10;3.53;;;2.00;;
6205;SDS011;3136;48.788;9.772;2022-09-16T16:38:37;7.13;;;2.07;;
6205;SDS011;3136;48.788;9.772;2022-09-16T16:41:04;4.90;;;2.10;;
6205;SDS011;3136;48.788;9.772;2022-09-16T16:43:30;6.13;;;1.90;;
6205;SDS011;3136;48.788;9.772;2022-09-16T16:45:56;3.83;;;2.00;;
6205;SDS011;3136;48.788;9.772;2022-09-16T16:48:26;7.37;;;2.10;;
6205;SDS011;3136;48.788;9.772;2022-09-16T16:53:21;3.27;;;2.43;;
6205;SDS011;3136;48.788;9.772;2022-09-16T16:55:47;4.03;;;1.90;;
6205;SDS011;3136;48.788;9.772;2022-09-16T16:58:12;6.87;;;4.13;;
6205;SDS011;3136;48.788;9.772;2022-09-16T17:00:38;7.83;;;6.40;;
6205;SDS011;3136;48.788;9.772;2022-09-16T17:03:04;8.07;;;4.80;;
6205;SDS011;3136;48.788;9.772;2022-09-16T17:05:29;5.37;;;3.40;;
6205;SDS011;3136;48.788;9.772;2022-09-16T17:07:55;7.57;;;3.60;;
6205;SDS011;3136;48.788;9.772;2022-09-16T17:10:20;5.00;;;2.50;;
6205;SDS011;3136;48.788;9.772;2022-09-16T17:12:47;4.03;;;2.40;;
6205;SDS011;3136;48.788;9.772;2022-09-16T17:15:13;4.57;;;2.23;;
6205;SDS011;3136;48.788;9.772;2022-09-16T17:17:38;4.87;;;2.80;;
6205;SDS011;3136;48.788;9.772;2022-09-16T17:20:04;4.70;;;4.00;;
6205;SDS011;3136;48.788;9.772;2022-09-16T17:22:31;4.87;;;3.00;;
6205;SDS011;3136;48.788;9.772;2022-09-16T17:24:56;4.57;;;3.03;;
6205;SDS011;3136;48.788;9.772;2022-09-16T17:27:22;5.07;;;2.83;;
6205;SDS011;3136;48.788;9.772;2022-09-16T17:29:50;3.40;;;2.67;;
6205;SDS011;3136;48.788;9.772;2022-09-16T17:32:16;6.77;;;3.20;;
6205;SDS011;3136;48.788;9.772;2022-09-16T17:34:41;5.63;;;2.70;;
6205;SDS011;3136;48.788;9.772;2022-09-16T17:37:07;4.67;;;3.20;;
6205;SDS011;3136;48.788;9.772;2022-09-16T17:39:33;6.43;;;3.23;;
6205;SDS011;3136;48.788;9.772;2022-09-16T17:41:59;7.30;;;3.30;;
6205;SDS011;3136;48.788;9.772;2022-09-16T17:44:24;6.07;;;3.33;;
6205;SDS011;3136;48.788;9.772;2022-09-16T17:46:50;6.73;;;3.20;;
6205;SDS011;3136;48.788;9.772;2022-09-16T17:49:18;5.23;;;3.13;;
6205;SDS011;3136;48.788;9.772;2022-09-16T17:51:45;6.60;;;3.00;;
6205;SDS011;3136;48.788;9.772;2022-09-16T17:54:11;6.53;;;3.40;;
6205;SDS011;3136;48.788;9.772;2022-09-16T17:56:37;4.53;;;2.97;;
6205;SDS011;3136;48.788;9.772;2022-09-16T17:59:03;5.00;;;2.30;;
6205;SDS011;3136;48.788;9.772;2022-09-16T18:01:29;8.00;;;5.00;;
6205;SDS011;3136;48.788;9.772;2022-09-16T18:03:56;5.60;;;2.80;;
6205;SDS011;3136;48.788;9.772;2022-09-16T18:06:26;4.83;;;3.17;;
6205;SDS011;3136;48.788;9.772;2022-09-16T18:08:54;4.73;;;3.97;;
6205;SDS011;3136;48.788;9.772;2022-09-16T18:11:22;4.53;;;2.40;;
6205;SDS011;3136;48.788;9.772;2022-09-16T18:13:52;5.70;;;2.90;;
6205;SDS011;3136;48.788;9.772;2022-09-16T18:16:22;2.97;;;2.20;;
6205;SDS011;3136;48.788;9.772;2022-09-16T18:18:49;2.00;;;1.60;;
6205;SDS011;3136;48.788;9.772;2022-09-16T18:21:16;2.60;;;1.30;;
6205;SDS011;3136;48.788;9.772;2022-09-16T18:23:43;2.70;;;1.47;;